Point Reyes Station, California
Current Conditions -  °F | °C
As of 12:15 PM on Wednesday 28 Jan 2015 (Local Time) from KDVO Reporting Station
Clear Clear  
Wind Chill: 17°   Ceiling: Unl
Heat Index: 17°   Visibility: 10mi
Dew Point: 10°   Wind: 5mph
Humidity: 63%   Direction: 150°SSE
Pressure: 30.23"   Gusts: NA
Location:  38.07°N, 122.81°W
Report Text: KDVO 282015Z AUTO 15004KT 10SM CLR 17/10 A3023 RMK AO2
Loading
Personal Weather Stations






























Interactive Weather Map New forecast layout! Learn more

10-Day Weather Forecast

Advertisements
Track Severe Weather on mobile